KLGU/LGU METAR and TAF weather

Enter ICAO airport designator
Station Type Date Time Source
KLGU METAR 2022/12/04 05:51 UTC NOAA

KLGU 040551Z AUTO 28005KT 10SM CLR M12/M14 A3028 RMK AO2 SLP322 I6000 T11171139 11094 21139 58004 $


Station Type Date Time Source
KLGU Decoded METAR 2022/12/04 05:51 UTC NOAA

LOGAN CACHE AIRPORT, UT, United States (KLGU) 41-47N 111-51W 1355M
Dec 04, 2022 - 12:51 AM EST / 2022.12.04 0551 UTC
Wind: from the W (280 degrees) at 6 MPH (5 KT):0
Visibility: 10 mile(s):0
Sky conditions: clear
Temperature: 10.9 F (-11.7 C)
Windchill: 1 F (-17 C):1
Dew Point: 7.0 F (-13.9 C)
Relative Humidity: 83%
Pressure (altimeter): 30.28 in. Hg (1025 hPa)
Pressure tendency: 0.01 inches (0.4 hPa) lower than three hours ago
ob: KLGU 040551Z AUTO 28005KT 10SM CLR M12/M14 A3028 RMK AO2 SLP322 I6000 T11171139 11094 21139 58004
cycle: 6

Station Type Date Time Source
KLGU TAF 2022/12/04 06:39 UTC NOAA

TAF KLGU 040537Z 0406/0506 VRB03KT P6SM BKN050
FM041000 VRB03KT 5SM BR SCT050 BKN080
FM041500 VRB04KT P6SM SCT050 BKN080
FM041800 VRB03KT P6SM VCSH SCT025 OVC050
FM050100 33006KT 2SM -SN SCT008 OVC020

Example: see airport list